createdAt,value
2018-09-12T00:01:26.299Z,16.60
2018-09-12T00:03:55.608Z,16.60
2018-09-12T00:06:24.589Z,16.60
2018-09-12T00:08:54.213Z,16.60
2018-09-12T00:11:35.171Z,16.50
2018-09-12T00:14:04.308Z,16.50
2018-09-12T00:16:33.511Z,16.50
2018-09-12T00:19:02.512Z,16.50
2018-09-12T00:21:31.453Z,16.40
2018-09-12T00:24:00.399Z,16.40
2018-09-12T00:26:29.290Z,16.40
2018-09-12T00:28:58.327Z,16.30
2018-09-12T00:31:27.902Z,16.40
2018-09-12T00:33:56.813Z,16.40
2018-09-12T00:36:25.787Z,16.40
2018-09-12T00:38:54.798Z,16.30
2018-09-12T00:41:23.800Z,16.30
2018-09-12T00:43:54.917Z,16.20
2018-09-12T00:46:23.927Z,16.20
2018-09-12T00:48:52.954Z,16.20
2018-09-12T00:51:21.935Z,16.20
2018-09-12T00:53:50.885Z,16.20
2018-09-12T00:56:20.015Z,16.20
2018-09-12T00:58:49.126Z,16.20
2018-09-12T01:01:18.015Z,16.10
2018-09-12T01:03:47.522Z,16.10
2018-09-12T01:06:16.599Z,16.10
2018-09-12T01:08:45.509Z,16.00
2018-09-12T01:11:14.855Z,15.90
2018-09-12T01:13:43.928Z,15.90
2018-09-12T01:16:12.877Z,15.90
2018-09-12T01:18:42.031Z,15.90
2018-09-12T01:21:11.056Z,15.80
2018-09-12T01:23:40.151Z,15.80
2018-09-12T01:26:09.248Z,15.80
2018-09-12T01:28:38.134Z,15.70
2018-09-12T01:31:07.202Z,15.80
2018-09-12T01:33:36.204Z,15.70
2018-09-12T01:36:05.198Z,15.70
2018-09-12T01:38:34.237Z,15.70
2018-09-12T01:41:03.247Z,15.70
2018-09-12T01:43:32.257Z,15.70
2018-09-12T01:46:01.252Z,15.70
2018-09-12T01:48:30.277Z,15.70
2018-09-12T01:50:59.308Z,15.60
2018-09-12T01:53:28.302Z,15.60
2018-09-12T01:55:57.219Z,15.50
2018-09-12T01:58:26.239Z,15.40
2018-09-12T02:00:55.448Z,15.40
2018-09-12T02:03:24.507Z,15.40
2018-09-12T02:05:53.527Z,15.40
2018-09-12T02:08:22.517Z,15.30
2018-09-12T02:10:51.575Z,15.30
2018-09-12T02:13:20.908Z,15.30
2018-09-12T02:15:49.989Z,15.20
2018-09-12T02:18:20.142Z,15.20
2018-09-12T02:20:49.052Z,15.20
2018-09-12T02:23:18.096Z,15.20
2018-09-12T02:25:47.113Z,15.10
2018-09-12T02:28:16.121Z,15.10
2018-09-12T02:30:45.169Z,15.10
2018-09-12T02:33:14.224Z,15.10
2018-09-12T02:35:48.418Z,15.00
2018-09-12T02:38:17.580Z,15.00
2018-09-12T02:40:46.919Z,15.00
2018-09-12T02:43:16.138Z,15.00
2018-09-12T02:45:45.079Z,14.90
2018-09-12T02:48:14.038Z,14.90
2018-09-12T02:50:43.096Z,14.90
2018-09-12T02:53:13.188Z,14.80
2018-09-12T02:55:42.277Z,14.80
2018-09-12T02:58:11.226Z,14.80
2018-09-12T03:00:41.150Z,14.70
2018-09-12T03:03:10.109Z,14.70
2018-09-12T03:05:39.166Z,14.70
2018-09-12T03:08:08.257Z,14.70
2018-09-12T03:10:37.234Z,14.60
2018-09-12T03:13:06.270Z,14.60
2018-09-12T03:15:35.279Z,14.60
2018-09-12T03:18:04.297Z,14.60
2018-09-12T03:20:33.459Z,14.70
2018-09-12T03:23:02.602Z,14.60
2018-09-12T03:25:31.834Z,14.60
2018-09-12T03:28:00.843Z,14.70
2018-09-12T03:30:30.155Z,14.70
2018-09-12T03:32:59.350Z,14.70
2018-09-12T03:35:32.984Z,14.70
2018-09-12T03:38:01.926Z,14.80
2018-09-12T03:40:30.916Z,14.80
2018-09-12T03:42:59.961Z,14.80
2018-09-12T03:45:29.054Z,14.70
2018-09-12T03:47:58.600Z,14.70
2018-09-12T03:50:27.379Z,14.70
2018-09-12T03:52:56.697Z,14.80
2018-09-12T03:55:25.820Z,14.80
2018-09-12T03:57:55.067Z,14.90
2018-09-12T04:00:24.167Z,14.90
2018-09-12T04:02:53.150Z,14.90
2018-09-12T04:05:22.997Z,14.90
2018-09-12T04:07:52.381Z,14.90
2018-09-12T04:10:21.236Z,14.90
2018-09-12T04:12:50.108Z,14.90
2018-09-12T04:15:19.304Z,14.90
2018-09-12T04:17:48.261Z,14.90
2018-09-12T04:20:17.402Z,14.90
2018-09-12T04:22:46.415Z,14.90
2018-09-12T04:25:15.388Z,14.90
2018-09-12T04:27:44.557Z,14.90
2018-09-12T04:30:15.654Z,14.90
2018-09-12T04:32:44.677Z,14.90
2018-09-12T04:35:13.845Z,14.90
2018-09-12T04:37:43.056Z,14.90
2018-09-12T04:40:12.207Z,14.90
2018-09-12T04:42:42.039Z,14.90
2018-09-12T04:45:11.155Z,14.80
2018-09-12T04:47:40.239Z,14.80
2018-09-12T04:50:09.475Z,14.80
2018-09-12T04:52:38.556Z,14.80
2018-09-12T04:55:08.625Z,14.80
2018-09-12T04:57:37.516Z,14.80
2018-09-12T05:00:08.033Z,14.80
2018-09-12T05:02:37.190Z,14.90
2018-09-12T05:05:06.673Z,14.90
2018-09-12T05:07:35.593Z,14.90
2018-09-12T05:10:07.758Z,14.90
2018-09-12T05:18:56.830Z,15.00
2018-09-12T05:27:32.522Z,14.90
2018-09-12T05:51:24.657Z,15.30
2018-09-12T05:53:55.736Z,15.40
2018-09-12T05:56:25.460Z,15.50
2018-09-12T05:59:13.541Z,15.50
2018-09-12T06:01:42.494Z,15.60
2018-09-12T06:04:11.410Z,15.70
2018-09-12T06:06:40.263Z,15.80
2018-09-12T06:09:16.989Z,15.90
2018-09-12T06:11:49.276Z,16.00
2018-09-12T06:14:22.731Z,16.10
2018-09-12T06:16:54.703Z,16.30
2018-09-12T06:19:23.883Z,16.40
2018-09-12T06:21:53.473Z,16.50
2018-09-12T06:24:22.771Z,16.70
2018-09-12T06:29:25.520Z,17.10
2018-09-12T06:32:08.780Z,17.40
2018-09-12T06:34:37.867Z,17.60
2018-09-12T06:39:54.416Z,18.10
2018-09-12T06:42:29.397Z,19.10
2018-09-12T06:44:58.387Z,18.50
2018-09-12T06:47:27.449Z,18.80
2018-09-12T06:50:00.430Z,19.10
2018-09-12T06:52:29.426Z,19.30
2018-09-12T06:54:58.304Z,19.50
2018-09-12T06:57:29.523Z,19.70
2018-09-12T06:59:59.947Z,19.90
2018-09-12T07:02:36.633Z,20.10
2018-09-12T07:07:34.837Z,20.30
2018-09-12T07:10:03.910Z,20.20
2018-09-12T07:12:55.661Z,20.00
2018-09-12T07:15:31.040Z,20.40
2018-09-12T07:18:00.141Z,20.70
2018-09-12T07:20:29.290Z,21.00
2018-09-12T07:22:58.403Z,21.20
2018-09-12T07:25:27.578Z,21.40
2018-09-12T07:27:56.966Z,21.60
2018-09-12T07:30:26.838Z,21.70
2018-09-12T07:32:55.872Z,21.70
2018-09-12T07:35:26.219Z,21.60
2018-09-12T07:37:55.399Z,20.90
2018-09-12T07:40:27.704Z,20.60
2018-09-12T07:42:58.266Z,19.80
2018-09-12T07:48:30.415Z,19.50
2018-09-12T07:50:59.344Z,19.70
2018-09-12T07:53:29.091Z,19.90
2018-09-12T07:55:58.260Z,19.70
2018-09-12T07:58:27.361Z,19.60
2018-09-12T08:01:02.720Z,19.60
2018-09-12T08:03:33.876Z,19.80
2018-09-12T08:06:02.756Z,19.90
2018-09-12T08:08:31.601Z,20.10
2018-09-12T08:11:00.405Z,20.80
2018-09-12T08:13:29.274Z,20.50
2018-09-12T08:16:00.299Z,20.80
2018-09-12T08:18:29.236Z,21.60
2018-09-12T08:21:03.838Z,22.10
2018-09-12T08:23:32.888Z,22.80
2018-09-12T08:26:01.708Z,23.30
2018-09-12T08:28:30.771Z,23.50
2018-09-12T08:56:08.220Z,22.70
2018-09-12T08:58:37.127Z,22.90
2018-09-12T09:01:05.950Z,22.90
2018-09-12T09:03:34.869Z,22.50
2018-09-12T09:06:34.680Z,22.60
2018-09-12T09:09:03.779Z,22.70
2018-09-12T09:11:33.036Z,22.40
2018-09-12T09:17:32.625Z,22.00
2018-09-12T09:23:05.299Z,22.10
2018-09-12T09:25:34.169Z,23.00
2018-09-12T09:28:02.926Z,23.10
2018-09-12T09:30:33.012Z,24.00
2018-09-12T09:33:03.384Z,24.50
2018-09-12T09:35:32.316Z,24.80
2018-09-12T09:40:59.185Z,24.70
2018-09-12T09:43:27.989Z,23.00
2018-09-12T09:45:56.933Z,23.00
2018-09-12T09:48:27.294Z,22.80
2018-09-12T09:50:56.202Z,22.30
2018-09-12T09:53:25.617Z,22.40
2018-09-12T09:55:54.322Z,22.70
2018-09-12T09:58:34.785Z,22.20
2018-09-12T10:01:08.887Z,22.50
2018-09-12T10:03:42.512Z,23.20
2018-09-12T10:06:16.808Z,23.80
2018-09-12T10:08:51.054Z,24.20
2018-09-12T10:11:19.919Z,24.20
2018-09-12T10:13:49.271Z,24.30
2018-09-12T10:16:31.261Z,23.90
2018-09-12T10:19:02.743Z,24.10
2018-09-12T10:21:31.781Z,24.30
2018-09-12T10:24:04.144Z,24.10
2018-09-12T10:26:33.091Z,24.20
2018-09-12T10:29:02.804Z,23.90
2018-09-12T10:31:31.727Z,24.00
2018-09-12T10:34:00.640Z,24.10
2018-09-12T10:36:29.400Z,24.70
2018-09-12T10:38:58.287Z,24.80
2018-09-12T10:41:27.191Z,24.00
2018-09-12T10:43:56.104Z,25.00
2018-09-12T10:46:24.898Z,25.60
2018-09-12T10:48:53.960Z,24.40
2018-09-12T10:51:31.978Z,25.10
2018-09-12T10:54:00.888Z,24.30
2018-09-12T10:56:33.794Z,23.50
2018-09-12T10:59:02.799Z,23.50
2018-09-12T11:01:31.644Z,24.10
2018-09-12T11:08:17.683Z,25.30
2018-09-12T11:11:01.689Z,26.30
2018-09-12T11:13:32.206Z,26.30
2018-09-12T11:16:01.759Z,25.80
2018-09-12T11:18:31.448Z,25.40
2018-09-12T11:21:03.563Z,25.20
2018-09-12T11:23:32.247Z,24.10
2018-09-12T11:26:02.444Z,24.30
2018-09-12T11:28:31.343Z,24.20
2018-09-12T11:31:00.039Z,24.40
2018-09-12T11:33:28.900Z,23.50
2018-09-12T11:35:57.736Z,24.00
2018-09-12T11:38:32.955Z,24.50
2018-09-12T11:41:01.766Z,25.60
2018-09-12T11:43:30.664Z,26.00
2018-09-12T11:45:59.644Z,26.50
2018-09-12T11:48:29.645Z,26.80
2018-09-12T11:50:58.433Z,27.10
2018-09-12T11:53:27.168Z,25.50
2018-09-12T11:56:04.165Z,25.20
2018-09-12T11:58:33.452Z,25.50
2018-09-12T12:01:03.441Z,25.60
2018-09-12T12:03:45.752Z,25.60
2018-09-12T12:06:14.645Z,25.50
2018-09-12T12:08:43.806Z,25.90
2018-09-12T12:11:29.564Z,24.20
2018-09-12T12:13:58.428Z,24.50
2018-09-12T12:16:27.120Z,24.20
2018-09-12T12:18:55.948Z,24.00
2018-09-12T12:21:24.577Z,24.00
2018-09-12T12:24:02.724Z,23.50
2018-09-12T12:26:35.419Z,23.30
2018-09-12T12:29:04.580Z,23.00
2018-09-12T12:31:38.180Z,22.80
2018-09-12T12:34:07.388Z,22.70
2018-09-12T12:36:36.775Z,23.00
2018-09-12T12:39:09.007Z,22.70
2018-09-12T12:41:37.806Z,22.70
2018-09-12T12:44:07.978Z,22.80
2018-09-12T12:46:55.600Z,23.30
2018-09-12T12:49:24.725Z,23.30
2018-09-12T12:51:55.510Z,23.70
2018-09-12T12:54:24.987Z,24.20
2018-09-12T12:57:00.441Z,25.30
2018-09-12T12:59:30.548Z,24.80
2018-09-12T13:02:00.108Z,25.30
2018-09-12T13:04:32.588Z,25.30
2018-09-12T13:07:01.358Z,25.10
2018-09-12T13:09:30.187Z,25.70
2018-09-12T13:15:03.231Z,25.60
2018-09-12T13:17:33.336Z,24.80
2018-09-12T13:20:03.992Z,24.90
2018-09-12T13:22:34.285Z,25.00
2018-09-12T13:25:03.350Z,25.90
2018-09-12T13:36:43.435Z,25.60
2018-09-12T13:45:31.671Z,25.10
2018-09-12T13:54:06.727Z,23.90
2018-09-12T13:56:37.315Z,24.00
2018-09-12T13:59:19.600Z,24.00
2018-09-12T14:01:59.215Z,24.40
2018-09-12T14:04:32.343Z,24.90
2018-09-12T14:07:02.431Z,25.20
2018-09-12T14:09:31.954Z,24.10
2018-09-12T14:12:04.418Z,23.80
2018-09-12T14:14:33.466Z,23.10
2018-09-12T14:17:02.532Z,23.30
2018-09-12T14:19:31.943Z,23.00
2018-09-12T14:22:01.514Z,23.20
2018-09-12T14:24:30.696Z,23.30
2018-09-12T14:27:00.181Z,23.40
2018-09-12T14:30:03.360Z,23.10
2018-09-12T14:32:32.280Z,23.20
2018-09-12T14:38:07.632Z,23.00
2018-09-12T14:44:03.577Z,22.10
2018-09-12T14:46:32.765Z,21.50
2018-09-12T14:49:03.227Z,21.20
2018-09-12T14:54:37.273Z,21.20
2018-09-12T14:57:31.156Z,20.80
2018-09-12T15:00:04.023Z,20.80
2018-09-12T15:02:33.254Z,20.30
2018-09-12T15:05:04.085Z,20.00
2018-09-12T15:07:33.160Z,19.90
2018-09-12T15:10:04.074Z,19.60
2018-09-12T15:12:33.309Z,19.50
2018-09-12T15:15:02.440Z,19.60
2018-09-12T15:17:32.321Z,19.20
2018-09-12T15:23:03.245Z,18.90
2018-09-12T15:28:23.679Z,18.90
2018-09-12T15:30:52.895Z,18.40
2018-09-12T15:33:27.929Z,18.70
2018-09-12T15:35:58.495Z,18.60
2018-09-12T15:38:27.478Z,18.70
2018-09-12T15:40:56.322Z,18.50
2018-09-12T15:43:25.150Z,18.50
2018-09-12T15:45:55.503Z,18.50
2018-09-12T15:48:24.545Z,18.20
2018-09-12T15:50:53.460Z,18.10
2018-09-12T15:53:23.487Z,18.20
2018-09-12T15:55:53.089Z,18.00
2018-09-12T15:58:24.637Z,17.80
2018-09-12T16:00:55.851Z,17.60
2018-09-12T16:03:24.790Z,17.50
2018-09-12T16:05:53.739Z,17.40
2018-09-12T16:08:22.591Z,17.30
2018-09-12T16:10:52.964Z,17.00
2018-09-12T16:13:21.957Z,17.00
2018-09-12T16:15:51.333Z,16.80
2018-09-12T16:18:20.349Z,16.60
2018-09-12T16:20:49.354Z,16.70
2018-09-12T16:23:18.513Z,16.90
2018-09-12T16:25:47.544Z,17.00
2018-09-12T16:28:16.667Z,17.00
2018-09-12T16:30:46.500Z,17.00
2018-09-12T16:33:15.523Z,16.90
2018-09-12T16:35:44.544Z,17.00
2018-09-12T16:38:13.571Z,16.90
2018-09-12T16:40:45.042Z,16.60
2018-09-12T16:43:14.071Z,16.70
2018-09-12T16:45:42.805Z,16.80
2018-09-12T16:48:11.468Z,16.60
2018-09-12T16:50:40.270Z,16.50
2018-09-12T16:53:09.277Z,16.40
2018-09-12T16:55:38.378Z,16.50
2018-09-12T16:58:07.163Z,16.50
2018-09-12T17:00:36.041Z,16.50
2018-09-12T17:03:04.809Z,16.60
2018-09-12T17:05:33.375Z,16.50
2018-09-12T17:08:02.285Z,16.40
2018-09-12T17:10:31.168Z,16.40
2018-09-12T17:12:59.780Z,16.40
2018-09-12T17:15:28.372Z,16.20
2018-09-12T17:17:57.212Z,16.20
2018-09-12T17:20:26.360Z,16.30
2018-09-12T17:22:57.448Z,16.30
2018-09-12T17:25:26.415Z,16.20
2018-09-12T17:28:00.186Z,16.10
2018-09-12T17:30:29.309Z,16.00
2018-09-12T17:32:58.715Z,16.00
2018-09-12T17:35:27.667Z,15.80
2018-09-12T17:37:56.573Z,15.90
2018-09-12T17:40:32.390Z,16.10
2018-09-12T17:43:05.650Z,16.10
2018-09-12T17:45:34.536Z,15.90
2018-09-12T17:48:03.459Z,15.80
2018-09-12T17:53:39.875Z,15.80
2018-09-12T17:56:08.694Z,15.80
2018-09-12T17:58:37.677Z,15.80
2018-09-12T18:01:06.979Z,15.80
2018-09-12T18:03:35.779Z,15.80
2018-09-12T18:06:04.700Z,15.80
2018-09-12T18:11:34.022Z,15.70
2018-09-12T18:14:03.909Z,15.70
2018-09-12T18:16:32.831Z,15.60
2018-09-12T18:19:31.807Z,15.50
2018-09-12T18:22:04.117Z,15.60
2018-09-12T18:24:33.557Z,15.80
2018-09-12T18:27:03.587Z,15.90
2018-09-12T18:29:32.486Z,16.00
2018-09-12T18:34:53.786Z,16.00
2018-09-12T18:37:22.573Z,15.80
2018-09-12T18:39:51.186Z,15.90
2018-09-12T18:42:19.978Z,16.00
2018-09-12T18:44:50.049Z,15.90
2018-09-12T18:47:18.986Z,15.60
2018-09-12T18:50:32.271Z,15.60
2018-09-12T18:53:01.288Z,15.40
2018-09-12T18:55:30.211Z,15.40
2018-09-12T18:57:59.174Z,15.40
2018-09-12T19:00:33.799Z,15.50
2018-09-12T19:03:02.736Z,15.40
2018-09-12T19:05:31.610Z,15.30
2018-09-12T19:08:04.383Z,15.20
2018-09-12T19:11:02.735Z,15.20
2018-09-12T19:13:33.378Z,15.20
2018-09-12T19:30:03.406Z,15.20
2018-09-12T19:32:36.851Z,15.40
2018-09-12T19:35:06.144Z,15.50
2018-09-12T19:37:35.563Z,15.50
2018-09-12T19:40:04.520Z,15.40
2018-09-12T19:42:33.484Z,15.50
2018-09-12T19:45:02.891Z,15.60
2018-09-12T19:47:32.309Z,15.60
2018-09-12T19:50:01.195Z,15.60
2018-09-12T19:52:30.133Z,15.40
2018-09-12T19:55:01.391Z,15.30
2018-09-12T19:57:30.997Z,15.20
2018-09-12T19:59:59.972Z,15.20
2018-09-12T20:02:31.486Z,15.30
2018-09-12T20:05:01.214Z,15.30
2018-09-12T20:07:31.648Z,15.40
2018-09-12T20:10:00.852Z,15.40
2018-09-12T20:12:29.699Z,15.30
2018-09-12T20:14:58.507Z,15.20
2018-09-12T20:17:27.349Z,15.10
2018-09-12T20:19:56.616Z,15.10
2018-09-12T20:22:25.699Z,15.00
2018-09-12T20:24:54.554Z,15.10
2018-09-12T20:27:23.375Z,15.10
2018-09-12T20:29:52.346Z,15.10
2018-09-12T20:32:21.254Z,15.20
2018-09-12T20:34:51.276Z,15.20
2018-09-12T20:37:20.620Z,15.10
2018-09-12T20:39:50.116Z,15.10
2018-09-12T20:42:19.020Z,15.20
2018-09-12T20:44:47.940Z,15.20
2018-09-12T20:47:16.971Z,15.10
2018-09-12T20:49:46.019Z,15.10
2018-09-12T20:52:14.801Z,15.10
2018-09-12T20:54:43.556Z,15.10
2018-09-12T20:57:12.451Z,15.00
2018-09-12T20:59:41.226Z,15.20
2018-09-12T21:02:10.040Z,15.30
2018-09-12T21:04:38.972Z,15.20
2018-09-12T21:07:07.831Z,15.10
2018-09-12T21:09:36.591Z,15.20
2018-09-12T21:12:07.325Z,15.30
2018-09-12T21:14:36.241Z,15.40
2018-09-12T21:17:05.563Z,15.40
2018-09-12T21:19:34.971Z,15.40
2018-09-12T21:22:03.830Z,15.30
2018-09-12T21:24:32.708Z,15.20
2018-09-12T21:27:01.547Z,15.00
2018-09-12T21:29:31.308Z,14.90
2018-09-12T21:32:00.220Z,15.00
2018-09-12T21:34:29.067Z,15.00
2018-09-12T21:36:58.004Z,14.90
2018-09-12T21:39:26.726Z,15.10
2018-09-12T21:41:55.707Z,15.10
2018-09-12T21:44:24.600Z,15.00
2018-09-12T21:46:53.306Z,14.90
2018-09-12T21:49:22.045Z,15.00
2018-09-12T21:51:51.321Z,14.90
2018-09-12T21:54:20.351Z,14.90
2018-09-12T21:56:49.918Z,14.90
2018-09-12T21:59:21.779Z,15.00
2018-09-12T22:01:50.686Z,15.00
2018-09-12T22:04:19.703Z,14.90
2018-09-12T22:06:48.538Z,14.80
2018-09-12T22:09:18.129Z,14.90
2018-09-12T22:11:51.761Z,14.90
2018-09-12T22:14:20.600Z,14.80
2018-09-12T22:16:50.433Z,14.80
2018-09-12T22:19:19.182Z,14.80
2018-09-12T22:21:47.979Z,14.70
2018-09-12T22:24:16.722Z,14.70
2018-09-12T22:26:45.519Z,14.80
2018-09-12T22:29:14.386Z,14.90
2018-09-12T22:31:43.171Z,14.90
2018-09-12T22:34:12.140Z,14.90
2018-09-12T22:36:40.896Z,15.00
2018-09-12T22:39:11.287Z,15.00
2018-09-12T22:41:40.769Z,14.90
2018-09-12T22:44:09.714Z,14.80
2018-09-12T22:46:38.616Z,14.70
2018-09-12T22:49:07.500Z,14.70
2018-09-12T22:51:36.445Z,14.70
2018-09-12T22:54:05.313Z,14.70
2018-09-12T22:56:34.006Z,14.70
2018-09-12T22:59:02.882Z,14.70
2018-09-12T23:01:31.840Z,14.60
2018-09-12T23:04:00.596Z,14.50
2018-09-12T23:06:29.408Z,14.40
2018-09-12T23:08:58.244Z,14.60
2018-09-12T23:11:27.132Z,14.50
2018-09-12T23:13:55.981Z,14.50
2018-09-12T23:16:24.799Z,14.40
2018-09-12T23:18:54.103Z,14.50
2018-09-12T23:21:22.873Z,14.50
2018-09-12T23:23:51.935Z,14.40
2018-09-12T23:26:21.613Z,14.50
2018-09-12T23:28:50.681Z,14.50
2018-09-12T23:31:19.517Z,14.40
2018-09-12T23:33:48.388Z,14.40
2018-09-12T23:36:17.274Z,14.40
2018-09-12T23:38:46.045Z,14.30
2018-09-12T23:41:14.762Z,14.30
2018-09-12T23:43:43.720Z,14.20
2018-09-12T23:46:12.364Z,14.30
2018-09-12T23:48:41.091Z,14.40
2018-09-12T23:51:09.961Z,14.30
2018-09-12T23:53:39.051Z,14.40
2018-09-12T23:56:07.838Z,14.40
2018-09-12T23:58:36.709Z,14.30
